createdAt,value
2023-04-02T00:01:39.456Z,392.70
2023-04-02T00:06:45.177Z,382.92
2023-04-02T00:11:49.984Z,397.67
2023-04-02T00:16:53.552Z,363.67
2023-04-02T00:21:57.332Z,380.27
2023-04-02T00:27:00.229Z,380.63
2023-04-02T00:32:02.302Z,378.65
2023-04-02T00:37:05.271Z,347.75
2023-04-02T00:42:07.198Z,353.83
2023-04-02T00:47:29.588Z,340.63
2023-04-02T00:52:32.335Z,374.83
2023-04-02T00:57:34.647Z,357.05
2023-04-02T01:02:40.860Z,363.05
2023-04-02T01:07:59.470Z,366.75
2023-04-02T01:13:28.730Z,344.58
2023-04-02T01:18:50.385Z,348.15
2023-04-02T01:24:18.901Z,345.65
2023-04-02T01:29:40.295Z,346.13
2023-04-02T01:34:44.717Z,355.63
2023-04-02T01:39:55.740Z,332.55
2023-04-02T01:45:07.883Z,337.55
2023-04-02T01:50:31.931Z,337.90
2023-04-02T01:55:40.216Z,318.45
2023-04-02T02:05:47.847Z,308.98
2023-04-02T02:10:50.906Z,354.98
2023-04-02T02:15:56.988Z,340.90
2023-04-02T02:21:01.201Z,334.58
2023-04-02T02:26:06.234Z,327.23
2023-04-02T02:31:18.541Z,343.13
2023-04-02T02:36:55.023Z,334.73
2023-04-02T02:42:02.728Z,358.67
2023-04-02T02:47:16.925Z,339.33
2023-04-02T02:52:27.817Z,333.10
2023-04-02T02:57:47.109Z,337.38
2023-04-02T03:02:50.091Z,318.45
2023-04-02T03:07:56.405Z,335.40
2023-04-02T03:13:12.932Z,324.08
2023-04-02T03:18:26.524Z,338.25
2023-04-02T03:23:46.231Z,313.33
2023-04-02T03:29:00.018Z,312.50
2023-04-02T03:34:26.428Z,313.83
2023-04-02T03:39:43.865Z,321.48
2023-04-02T03:45:10.910Z,300.75
2023-04-02T03:50:25.382Z,312.38
2023-04-02T03:55:35.550Z,311.17
2023-04-02T04:00:54.080Z,309.27
2023-04-02T04:06:05.329Z,315.30
2023-04-02T04:11:10.524Z,318.73
2023-04-02T04:16:20.090Z,322.92
2023-04-02T04:21:37.451Z,315.58
2023-04-02T04:27:09.541Z,315.90
2023-04-02T04:32:34.810Z,293.58
2023-04-02T04:37:49.703Z,301.70
2023-04-02T04:42:58.201Z,304.50
2023-04-02T04:48:19.120Z,302.75
2023-04-02T04:53:25.392Z,289.67
2023-04-02T04:58:50.394Z,282.77
2023-04-02T05:04:14.344Z,275.98
2023-04-02T05:09:29.539Z,278.75
2023-04-02T05:14:50.421Z,271.48
2023-04-02T05:19:57.182Z,272.55
2023-04-02T05:30:24.101Z,268.38
2023-04-02T05:35:34.708Z,277.48
2023-04-02T05:40:45.694Z,266.73
2023-04-02T05:45:54.116Z,275.27
2023-04-02T05:50:58.920Z,302.38
2023-04-02T05:56:17.085Z,286.10
2023-04-02T06:01:39.337Z,262.13
2023-04-02T06:07:12.290Z,272.85
2023-04-02T06:12:44.960Z,269.48
2023-04-02T06:17:52.644Z,267.80
2023-04-02T06:23:25.714Z,263.15
2023-04-02T06:28:46.213Z,256.60
2023-04-02T06:39:03.528Z,264.23
2023-04-02T06:44:14.372Z,236.93
2023-04-02T06:49:43.327Z,257.52
2023-04-02T06:54:47.093Z,248.70
2023-04-02T06:59:52.186Z,262.95
2023-04-02T07:05:03.619Z,264.77
2023-04-02T07:10:09.334Z,249.63
2023-04-02T07:15:16.556Z,248.95
2023-04-02T07:20:33.213Z,264.92
2023-04-02T07:25:41.070Z,249.63
2023-04-02T07:30:45.102Z,259.35
2023-04-02T07:35:47.879Z,256.40
2023-04-02T07:40:52.380Z,249.40
2023-04-02T07:45:54.283Z,297.43
2023-04-02T07:50:56.294Z,271.80
2023-04-02T07:56:03.232Z,253.63
2023-04-02T08:01:05.438Z,252.50
2023-04-02T08:06:07.405Z,250.30
2023-04-02T08:11:11.010Z,258.25
2023-04-02T08:16:13.251Z,266.55
2023-04-02T08:21:16.493Z,283.80
2023-04-02T08:26:19.557Z,257.48
2023-04-02T08:31:21.620Z,265.17
2023-04-02T08:36:33.219Z,278.55
2023-04-02T08:41:54.907Z,276.88
2023-04-02T08:47:04.574Z,265.13
2023-04-02T08:52:06.569Z,262.25
2023-04-02T08:57:26.084Z,283.83
2023-04-02T09:02:41.683Z,283.48
2023-04-02T09:07:43.560Z,273.27
2023-04-02T09:12:52.493Z,277.88
2023-04-02T09:18:04.320Z,282.05
2023-04-02T09:23:08.884Z,268.52
2023-04-02T09:28:12.001Z,300.08
2023-04-02T09:33:13.932Z,281.33
2023-04-02T09:38:24.266Z,290.10
2023-04-02T09:43:31.326Z,292.13
2023-04-02T09:48:39.425Z,294.23
2023-04-02T09:53:46.037Z,294.30
2023-04-02T09:59:13.032Z,296.60
2023-04-02T10:04:48.391Z,291.73
2023-04-02T10:10:01.709Z,319.85
2023-04-02T10:15:04.603Z,334.20
2023-04-02T10:20:20.057Z,313.25
2023-04-02T10:25:27.107Z,316.48
2023-04-02T10:30:55.834Z,325.90
2023-04-02T10:36:19.912Z,330.20
2023-04-02T10:41:57.458Z,316.55
2023-04-02T10:47:08.598Z,297.73
2023-04-02T10:52:20.051Z,306.85
2023-04-02T10:57:43.486Z,309.65
2023-04-02T11:02:55.276Z,350.02
2023-04-02T11:08:02.223Z,346.30
2023-04-02T11:13:26.215Z,347.52
2023-04-02T11:18:35.755Z,403.35
2023-04-02T11:23:59.697Z,409.13
2023-04-02T11:29:27.181Z,497.97
2023-04-02T11:34:41.296Z,472.73
2023-04-02T11:39:53.455Z,460.85
2023-04-02T11:44:58.666Z,435.90
2023-04-02T11:50:02.282Z,488.03
2023-04-02T11:55:27.385Z,434.17
2023-04-02T12:01:02.269Z,433.83
2023-04-02T12:06:19.063Z,444.35
2023-04-02T12:11:32.278Z,475.30
2023-04-02T12:16:35.415Z,486.98
2023-04-02T12:21:37.929Z,454.73
2023-04-02T12:26:42.481Z,457.77
2023-04-02T12:31:46.467Z,482.38
2023-04-02T12:36:52.928Z,484.83
2023-04-02T12:41:54.997Z,463.80
2023-04-02T12:46:58.574Z,480.92
2023-04-02T12:52:03.871Z,468.85
2023-04-02T12:57:30.843Z,476.35
2023-04-02T13:02:45.955Z,471.65
2023-04-02T13:07:48.100Z,476.80
2023-04-02T13:12:58.531Z,465.92
2023-04-02T13:18:19.449Z,488.75
2023-04-02T13:23:33.034Z,485.13
2023-04-02T13:28:34.907Z,476.88
2023-04-02T13:33:37.070Z,496.80
2023-04-02T13:38:38.904Z,482.27
2023-04-02T13:43:41.473Z,484.30
2023-04-02T13:48:43.341Z,490.15
2023-04-02T13:53:52.458Z,483.55
2023-04-02T13:58:54.365Z,498.58
2023-04-02T14:03:58.094Z,495.88
2023-04-02T14:10:00.021Z,490.40
2023-04-02T14:15:29.479Z,496.42
2023-04-02T14:20:49.165Z,494.05
2023-04-02T14:26:17.582Z,511.20
2023-04-02T14:31:43.476Z,506.60
2023-04-02T14:37:03.312Z,486.00
2023-04-02T14:42:18.742Z,498.45
2023-04-02T14:47:28.303Z,496.88
2023-04-02T14:52:35.050Z,513.67
2023-04-02T14:57:40.901Z,481.80
2023-04-02T15:02:47.216Z,489.05
2023-04-02T15:07:56.214Z,487.80
2023-04-02T15:13:00.111Z,488.90
2023-04-02T15:18:02.471Z,493.65
2023-04-02T15:23:30.418Z,500.88
2023-04-02T15:28:50.261Z,488.75
2023-04-02T15:34:12.360Z,493.73
2023-04-02T15:39:42.778Z,494.83
2023-04-02T15:45:01.190Z,471.13
2023-04-02T15:50:21.785Z,460.25
2023-04-02T15:55:49.530Z,493.23
2023-04-02T16:01:01.017Z,456.73
2023-04-02T16:06:19.383Z,456.05
2023-04-02T16:11:21.203Z,463.13
2023-04-02T16:16:36.073Z,477.25
2023-04-02T16:22:01.814Z,463.15
2023-04-02T16:27:11.721Z,461.20
2023-04-02T16:32:41.031Z,453.73
2023-04-02T16:37:50.425Z,461.13
2023-04-02T16:43:11.362Z,468.75
2023-04-02T16:48:35.752Z,444.50
2023-04-02T16:53:58.458Z,444.63
2023-04-02T16:59:12.121Z,461.15
2023-04-02T17:04:30.968Z,459.55
2023-04-02T17:09:35.938Z,451.38
2023-04-02T17:14:45.936Z,448.08
2023-04-02T17:19:50.519Z,441.45
2023-04-02T17:24:57.125Z,437.80
2023-04-02T17:30:22.577Z,439.43
2023-04-02T17:35:32.197Z,447.58
2023-04-02T17:40:40.507Z,431.58
2023-04-02T17:45:55.476Z,438.60
2023-04-02T17:51:21.723Z,430.83
2023-04-02T17:56:48.340Z,422.30
2023-04-02T18:02:01.524Z,428.27
2023-04-02T18:07:09.636Z,421.90
2023-04-02T18:12:42.490Z,416.33
2023-04-02T18:18:02.910Z,425.67
2023-04-02T18:23:35.813Z,424.85
2023-04-02T18:28:45.692Z,416.63
2023-04-02T18:34:46.249Z,411.73
2023-04-02T18:40:25.621Z,410.13
2023-04-02T18:46:05.115Z,394.42
2023-04-02T18:51:13.876Z,389.98
2023-04-02T18:56:19.978Z,403.58
2023-04-02T19:01:34.072Z,387.90
2023-04-02T19:06:41.002Z,382.20
2023-04-02T19:11:42.878Z,384.35
2023-04-02T19:16:59.818Z,372.40
2023-04-02T19:22:34.100Z,370.17
2023-04-02T19:28:00.630Z,360.30
2023-04-02T19:33:47.095Z,343.58
2023-04-02T19:39:00.863Z,345.85
2023-04-02T19:44:02.884Z,342.70
2023-04-02T19:49:23.403Z,347.30
2023-04-02T19:54:25.413Z,358.83
2023-04-02T19:59:29.359Z,351.15
2023-04-02T20:04:31.258Z,363.88
2023-04-02T20:09:33.236Z,353.10
2023-04-02T20:14:35.349Z,352.20
2023-04-02T20:19:37.265Z,378.80
2023-04-02T20:24:39.141Z,368.42
2023-04-02T20:29:44.481Z,356.65
2023-04-02T20:34:47.089Z,373.10
2023-04-02T20:39:49.022Z,381.27
2023-04-02T20:44:51.197Z,398.25
2023-04-02T20:49:53.161Z,387.75
2023-04-02T20:54:54.982Z,330.60
2023-04-02T20:59:58.800Z,328.02
2023-04-02T21:05:01.255Z,317.27
2023-04-02T21:10:04.893Z,321.40
2023-04-02T21:15:07.877Z,304.10
2023-04-02T21:20:11.437Z,304.42
2023-04-02T21:25:14.656Z,310.52
2023-04-02T21:30:16.578Z,310.15
2023-04-02T21:35:18.443Z,307.95
2023-04-02T21:40:20.288Z,297.13
2023-04-02T21:45:22.136Z,285.88
2023-04-02T21:50:24.407Z,282.88
2023-04-02T21:55:26.337Z,275.90
2023-04-02T22:00:28.638Z,293.38
2023-04-02T22:05:31.253Z,296.55
2023-04-02T22:10:33.146Z,292.17
2023-04-02T22:15:35.424Z,278.75
2023-04-02T22:20:41.136Z,289.95
2023-04-02T22:25:42.962Z,269.30
2023-04-02T22:30:44.910Z,272.80
2023-04-02T22:35:51.734Z,240.52
2023-04-02T22:41:06.380Z,245.90
2023-04-02T22:46:09.471Z,247.77
2023-04-02T22:51:16.006Z,253.52
2023-04-02T22:56:22.011Z,237.80
2023-04-02T23:01:27.919Z,234.93
2023-04-02T23:06:29.899Z,242.15
2023-04-02T23:11:32.272Z,239.00
2023-04-02T23:16:34.175Z,251.20
2023-04-02T23:21:36.134Z,259.38
2023-04-02T23:26:38.114Z,255.60
2023-04-02T23:31:40.327Z,244.80
2023-04-02T23:36:42.177Z,247.43
2023-04-02T23:41:44.068Z,253.55
2023-04-02T23:46:46.054Z,245.43
2023-04-02T23:51:47.991Z,238.32
2023-04-02T23:56:49.880Z,234.13
